Time;durP1;ratioP1;P1;durP2;ratioP2;P2;SDS_P1;SDS_P2;PMS_P1;PMS_P2;Temp;Humidity;BMP_temperature;BMP_pressure;BME280_temperature;BME280_humidity;BME280_pressure;Samples;Min_cycle;Max_cycle;Signal;HPM_P1;HPM_P2
2023/06/16 00:03:49;;;;;;;2.73;2.27;;;;;;;23.97;60.83;100485.41;10252338;28;96735;-80
2023/06/16 00:08:54;;;;;;;3.70;2.40;;;;;;;23.62;62.18;100482.38;10252689;28;96736;-80
2023/06/16 00:13:57;;;;;;;;;;;;;;;23.61;62.13;100486.06;10252881;28;96667;-80
2023/06/16 00:19:03;;;;;;;3.27;2.23;;;;;;;23.67;62.07;100480.13;10252531;28;96798;-81
2023/06/16 00:24:07;;;;;;;3.30;2.42;;;;;;;23.60;62.25;100481.66;10251956;28;96724;-81
2023/06/16 00:29:10;;;;;;;;;;;;;;;23.63;62.58;100473.34;10252632;28;97456;-81
2023/06/16 00:34:15;;;;;;;4.22;2.53;;;;;;;23.63;61.87;100471.47;10221472;28;96971;-80
2023/06/16 00:39:18;;;;;;;2.78;2.00;;;;;;;23.75;61.41;100474.06;10211368;28;97547;-80
2023/06/16 00:44:22;;;;;;;3.50;2.50;;;;;;;23.73;61.21;100471.50;10211255;28;97504;-80
2023/06/16 00:49:27;;;;;;;3.27;2.37;;;;;;;23.53;62.34;100478.63;10211105;28;96686;-81
2023/06/16 00:54:32;;;;;;;4.18;2.40;;;;;;;23.45;62.49;100469.56;10182843;28;96955;-81
2023/06/16 00:59:35;;;;;;;3.42;2.17;;;;;;;23.17;63.32;100465.78;10210605;28;96815;-81
2023/06/16 01:04:40;;;;;;;3.03;2.50;;;;;;;22.92;64.17;100463.53;10210177;28;96763;-81
2023/06/16 01:09:52;;;;;;;3.13;2.33;;;;;;;23.18;63.14;100466.66;10236352;28;96738;-80
2023/06/16 01:15:03;;;;;;;2.85;2.20;;;;;;;23.33;62.61;100457.22;10251046;28;96913;-80
2023/06/16 01:20:15;;;;;;;3.28;2.50;;;;;;;23.36;62.67;100456.94;10250681;28;97944;-81
2023/06/16 01:25:23;;;;;;;3.30;2.67;;;;;;;23.20;63.03;100454.78;10248119;28;96734;-81
2023/06/16 01:30:28;;;;;;;3.92;2.40;;;;;;;22.98;63.89;100441.56;10249947;28;96742;-80
2023/06/16 01:35:34;;;;;;;3.92;2.58;;;;;;;23.04;63.62;100446.41;10209457;28;97671;-80
2023/06/16 01:40:40;;;;;;;3.55;2.70;;;;;;;22.94;64.02;100447.34;10209969;28;96711;-81
2023/06/16 01:45:45;;;;;;;3.95;2.67;;;;;;;22.97;64.22;100444.38;10209217;28;96726;-80
2023/06/16 01:50:49;;;;;;;4.25;2.67;;;;;;;23.00;64.31;100444.09;10208814;28;96705;-80
2023/06/16 01:55:54;;;;;;;4.45;2.42;;;;;;;22.69;65.59;100453.94;10209206;28;96660;-80
2023/06/16 02:01:00;;;;;;;3.25;2.30;;;;;;;22.88;65.08;100448.72;10210146;28;96810;-81
2023/06/16 02:06:08;;;;;;;4.10;2.90;;;;;;;22.70;65.77;100444.06;10208165;28;97045;-80
2023/06/16 02:11:13;;;;;;;3.70;2.60;;;;;;;22.94;65.01;100439.28;10208641;28;97038;-80
2023/06/16 02:16:18;;;;;;;4.25;2.63;;;;;;;23.03;65.05;100441.13;10207838;28;97209;-80
2023/06/16 02:21:22;;;;;;;4.72;2.75;;;;;;;23.01;65.19;100433.22;10208167;28;96665;-80
2023/06/16 02:26:27;;;;;;;3.92;2.60;;;;;;;22.95;65.34;100432.91;10206650;28;98878;-80
2023/06/16 02:31:30;;;;;;;4.85;2.92;;;;;;;22.71;66.27;100430.53;10208305;28;96948;-80
2023/06/16 02:36:36;;;;;;;3.93;3.10;;;;;;;22.57;66.76;100423.63;10209059;28;96753;-80
2023/06/16 02:41:42;;;;;;;4.82;3.15;;;;;;;22.45;67.67;100423.88;10207691;28;96784;-80
2023/06/16 02:46:45;;;;;;;4.05;2.90;;;;;;;22.29;68.58;100416.28;10207270;28;96796;-80
2023/06/16 02:51:50;;;;;;;4.25;3.30;;;;;;;22.16;68.79;100412.94;10235477;28;97775;-80
2023/06/16 02:56:54;;;;;;;3.88;3.08;;;;;;;21.92;71.08;100414.09;10247864;28;96747;-81
2023/06/16 03:02:15;;;;;;;4.45;3.28;;;;;;;21.83;70.95;100407.69;10247552;28;96688;-80
2023/06/16 03:07:19;;;;;;;4.90;3.60;;;;;;;21.80;70.64;100404.41;10245589;28;96629;-80
2023/06/16 03:12:23;;;;;;;4.43;3.40;;;;;;;21.67;71.67;100393.03;10247564;28;97045;-80
2023/06/16 03:17:27;;;;;;;4.70;3.05;;;;;;;21.68;71.08;100394.72;10247469;28;97639;-80
2023/06/16 03:22:30;;;;;;;5.30;3.53;;;;;;;21.61;71.51;100393.53;10230782;28;96842;-80
2023/06/16 03:27:35;;;;;;;4.53;3.55;;;;;;;21.67;71.31;100393.03;10166561;28;96754;-80
2023/06/16 03:32:38;;;;;;;5.25;3.42;;;;;;;21.64;71.44;100390.63;10171747;28;96700;-80
2023/06/16 03:37:42;;;;;;;4.53;3.13;;;;;;;21.57;71.83;100384.94;10172898;28;96739;-80
2023/06/16 03:42:47;;;;;;;4.10;3.20;;;;;;;21.52;72.12;100385.28;10201576;28;96933;-80
2023/06/16 03:47:50;;;;;;;6.35;3.17;;;;;;;21.54;72.09;100392.38;10213059;28;96583;-80
2023/06/16 03:52:54;;;;;;;3.75;3.22;;;;;;;21.62;72.06;100400.59;10212932;28;96779;-80
2023/06/16 03:58:18;;;;;;;3.80;3.13;;;;;;;21.64;71.87;100396.81;10225140;28;96845;-80
2023/06/16 04:03:22;;;;;;;4.80;3.20;;;;;;;21.58;71.87;100408.03;10253056;28;96974;-80
2023/06/16 04:08:26;;;;;;;3.90;2.80;;;;;;;21.77;71.43;100420.75;10252816;28;96710;-80
2023/06/16 04:13:31;;;;;;;3.63;2.90;;;;;;;21.74;72.13;100415.66;10251693;28;97035;-80
2023/06/16 04:18:35;;;;;;;4.05;3.03;;;;;;;21.91;71.33;100413.28;10171740;28;96754;-80
2023/06/16 04:23:38;;;;;;;5.80;3.30;;;;;;;22.04;70.75;100418.50;10197093;28;96719;-80
2023/06/16 04:28:43;;;;;;;5.20;3.33;;;;;;;21.96;70.84;100418.25;10211901;28;96948;-80
2023/06/16 04:33:47;;;;;;;4.65;3.17;;;;;;;21.91;70.92;100418.63;10239043;28;97737;-79
2023/06/16 04:38:50;;;;;;;4.80;3.40;;;;;;;21.82;71.29;100421.22;10252122;28;97075;-81
2023/06/16 04:43:55;;;;;;;8.30;3.60;;;;;;;21.82;71.12;100427.44;10251456;28;96775;-80
2023/06/16 04:48:59;;;;;;;4.50;3.20;;;;;;;21.72;71.62;100425.63;10249833;28;96646;-80
2023/06/16 04:54:02;;;;;;;4.68;3.55;;;;;;;21.69;71.81;100426.75;10251176;28;96744;-80
2023/06/16 04:59:07;;;;;;;3.97;3.03;;;;;;;21.63;71.82;100434.44;10251142;28;96711;-80
2023/06/16 05:04:10;;;;;;;4.57;3.53;;;;;;;21.68;71.77;100437.56;10250435;22;97769;-81
2023/06/16 05:09:14;;;;;;;5.30;3.33;;;;;;;21.73;71.41;100446.13;10162231;28;96801;-80
2023/06/16 05:14:19;;;;;;;4.10;3.00;;;;;;;21.86;71.14;100454.81;10170195;28;96742;-80
2023/06/16 05:19:22;;;;;;;4.88;3.25;;;;;;;21.81;71.27;100459.72;10170124;28;97327;-80
2023/06/16 05:24:26;;;;;;;6.00;3.23;;;;;;;21.84;71.33;100459.44;10173641;28;97395;-80
2023/06/16 05:29:31;;;;;;;4.00;3.47;;;;;;;21.65;72.15;100459.25;10169550;28;96713;-81
2023/06/16 05:34:53;;;;;;;6.00;3.85;;;;;;;21.72;71.98;100471.19;10165835;28;96842;-80
2023/06/16 05:39:56;;;;;;;5.30;3.83;;;;;;;21.86;71.80;100469.09;10169345;28;96729;-80
2023/06/16 05:45:01;;;;;;;5.17;3.30;;;;;;;21.83;72.08;100474.66;10169471;28;96720;-80
2023/06/16 05:50:05;;;;;;;5.70;3.53;;;;;;;21.78;72.34;100476.06;10169321;28;96639;-80
2023/06/16 05:55:09;;;;;;;4.90;3.60;;;;;;;21.74;72.21;100474.59;10168894;28;97712;-80
2023/06/16 06:00:15;;;;;;;4.20;3.58;;;;;;;21.83;72.36;100474.66;10169625;28;97517;-80
2023/06/16 06:05:19;;;;;;;4.38;2.92;;;;;;;21.85;72.30;100485.28;10168209;28;96811;-80
2023/06/16 06:10:40;;;;;;;4.07;2.92;;;;;;;21.91;72.27;100485.63;10162436;28;96857;-80
2023/06/16 06:15:44;;;;;;;5.73;3.33;;;;;;;21.98;72.40;100478.81;10169977;28;97015;-81
2023/06/16 06:21:05;;;;;;;4.60;3.28;;;;;;;22.23;71.66;100488.34;10166798;28;96793;-80
2023/06/16 06:26:08;;;;;;;3.70;3.00;;;;;;;22.20;71.75;100489.44;10168223;28;97437;-80
2023/06/16 06:31:13;;;;;;;4.50;2.87;;;;;;;22.17;72.20;100484.34;10167925;28;97360;-80
2023/06/16 06:36:22;;;;;;;3.53;2.75;;;;;;;22.25;72.15;100479.19;10167138;28;97417;-81
2023/06/16 06:41:26;;;;;;;4.22;3.10;;;;;;;22.23;72.32;100474.94;10167939;28;96669;-80
2023/06/16 06:46:31;;;;;;;3.90;2.90;;;;;;;22.30;72.22;100476.09;10167926;28;96833;-80
2023/06/16 06:51:35;;;;;;;4.90;3.67;;;;;;;22.42;72.39;100477.75;10167824;28;97744;-80
2023/06/16 06:56:39;;;;;;;4.10;3.10;;;;;;;22.61;72.03;100476.06;10167330;28;96849;-80
2023/06/16 07:01:44;;;;;;;4.90;3.37;;;;;;;22.84;71.56;100482.16;10167487;28;97192;-80
2023/06/16 07:06:48;;;;;;;5.35;3.95;;;;;;;22.92;71.56;100484.19;10197754;28;96700;-80
2023/06/16 07:11:51;;;;;;;4.93;3.70;;;;;;;23.24;70.73;100476.84;10213840;28;96987;-80
2023/06/16 07:16:57;;;;;;;4.03;3.30;;;;;;;23.46;70.17;100479.31;10214232;28;98011;-80
2023/06/16 07:22:01;;;;;;;5.30;3.80;;;;;;;23.70;69.32;100474.47;10212037;28;96791;-80
2023/06/16 07:27:07;;;;;;;5.75;3.83;;;;;;;23.87;69.19;100481.00;10213414;28;96765;-80
2023/06/16 07:32:12;;;;;;;6.50;4.00;;;;;;;23.97;69.09;100480.03;10213171;28;96724;-80
2023/06/16 07:37:15;;;;;;;5.38;3.80;;;;;;;24.25;68.26;100478.34;10212773;28;96876;-80
2023/06/16 07:42:18;;;;;;;4.73;4.03;;;;;;;24.57;67.40;100486.97;10212528;28;97457;-80
2023/06/16 07:47:23;;;;;;;4.73;3.50;;;;;;;24.55;67.38;100486.28;10212912;28;96702;-80
2023/06/16 07:52:26;;;;;;;4.13;3.63;;;;;;;24.79;66.38;100484.81;10212645;28;96632;-80
2023/06/16 07:57:47;;;;;;;5.82;3.60;;;;;;;25.10;65.33;100484.63;10185885;28;96714;-80
2023/06/16 08:02:52;;;;;;;3.95;3.40;;;;;;;25.31;64.90;100478.00;10172354;28;97239;-80
2023/06/16 08:07:55;;;;;;;5.05;3.47;;;;;;;25.34;65.34;100480.41;10171573;28;96906;-81
2023/06/16 08:12:59;;;;;;;4.03;3.60;;;;;;;25.67;63.84;100479.81;10171295;28;96761;-80
2023/06/16 08:18:03;;;;;;;6.07;3.92;;;;;;;25.88;63.03;100471.47;10171882;28;97277;-81
2023/06/16 08:23:07;;;;;;;4.38;3.60;;;;;;;25.97;62.59;100475.09;10171677;28;96929;-81
2023/06/16 08:28:11;;;;;;;5.22;4.03;;;;;;;26.12;61.87;100460.94;10171721;28;97429;-81
2023/06/16 08:33:15;;;;;;;;;;;;;;;26.23;61.38;100462.53;10171943;28;97083;-80
2023/06/16 08:38:18;;;;;;;;;;;;;;;26.29;60.61;100453.81;10171987;28;96737;-81
2023/06/16 08:43:23;;;;;;;4.68;3.28;;;;;;;26.45;60.98;100456.69;10171517;28;97100;-81
2023/06/16 08:48:28;;;;;;;4.85;4.00;;;;;;;26.66;60.60;100451.78;10172182;28;97679;-81
2023/06/16 08:53:33;;;;;;;4.97;3.55;;;;;;;26.91;59.38;100440.13;10170576;28;96797;-81
2023/06/16 08:58:40;;;;;;;4.00;3.60;;;;;;;26.93;58.92;100438.09;10170508;28;96867;-81
2023/06/16 09:03:47;;;;;;;5.03;3.90;;;;;;;27.12;58.80;100437.03;10179449;28;97719;-81
2023/06/16 09:08:52;;;;;;;10.98;5.30;;;;;;;27.53;58.49;100428.13;10210454;28;96763;-81
2023/06/16 09:13:56;;;;;;;6.75;3.75;;;;;;;27.87;57.47;100428.91;10210125;28;97773;-80
2023/06/16 09:19:08;;;;;;;;;;;;;;;28.00;56.56;100427.38;10210481;28;96829;-81
2023/06/16 09:24:11;;;;;;;4.47;3.38;;;;;;;28.05;57.11;100422.31;10208918;28;96929;-80
2023/06/16 09:29:25;;;;;;;4.18;3.50;;;;;;;28.16;55.36;100423.84;10209087;28;96684;-81
2023/06/16 09:34:33;;;;;;;6.50;4.35;;;;;;;28.35;55.88;100423.53;10209578;28;97971;-81
2023/06/16 09:39:37;;;;;;;6.75;3.58;;;;;;;28.65;55.72;100425.56;10209430;28;97241;-80
2023/06/16 09:44:41;;;;;;;4.45;3.65;;;;;;;28.78;55.83;100422.28;10209521;28;96744;-81
2023/06/16 09:49:46;;;;;;;5.10;4.03;;;;;;;29.05;56.15;100424.63;10209264;28;96917;-80
2023/06/16 09:54:50;;;;;;;3.47;3.17;;;;;;;29.18;54.20;100417.63;10202939;28;96875;-80
2023/06/16 09:59:53;;;;;;;;;;;;;;;29.31;51.83;100411.66;10169542;28;96797;-81
2023/06/16 10:05:02;;;;;;;4.28;3.53;;;;;;;29.60;54.18;100424.56;10168360;28;96943;-81
2023/06/16 10:10:10;;;;;;;3.17;2.83;;;;;;;29.71;54.01;100414.16;10168856;28;96654;-81
2023/06/16 10:15:17;;;;;;;3.88;3.33;;;;;;;29.89;52.65;100412.00;10168679;28;97174;-80
2023/06/16 10:20:26;;;;;;;3.63;3.25;;;;;;;29.93;52.23;100415.22;10168345;28;97591;-80
2023/06/16 10:25:30;;;;;;;4.20;3.25;;;;;;;30.11;52.57;100410.34;10167929;28;97151;-80
2023/06/16 10:30:35;;;;;;;5.90;3.67;;;;;;;30.26;53.09;100403.94;10169493;28;97349;-81
2023/06/16 10:35:50;;;;;;;3.97;3.58;;;;;;;30.23;52.58;100398.88;10167863;28;97145;-80
2023/06/16 10:41:02;;;;;;;4.47;3.60;;;;;;;30.28;53.04;100406.47;10172174;28;96686;-81
2023/06/16 10:46:15;;;;;;;4.28;3.53;;;;;;;30.32;53.05;100390.66;10174345;28;96924;-81
2023/06/16 10:51:40;;;;;;;3.75;3.35;;;;;;;30.37;52.29;100390.97;10174804;28;96976;-81
2023/06/16 10:57:03;;;;;;;3.83;3.10;;;;;;;30.40;52.08;100396.88;10174256;28;97727;-81
2023/06/16 11:02:19;;;;;;;4.32;3.10;;;;;;;30.51;51.98;100390.16;10173333;28;96642;-82
2023/06/16 11:07:24;;;;;;;3.40;2.85;;;;;;;30.51;52.03;100382.81;10213750;28;96733;-81
2023/06/16 11:12:37;;;;;;;3.00;2.70;;;;;;;30.68;51.49;100381.66;10214157;28;96627;-81
2023/06/16 11:17:42;;;;;;;3.65;3.17;;;;;;;30.53;50.99;100383.47;10213895;28;96628;-81
2023/06/16 11:22:49;;;;;;;4.75;3.28;;;;;;;30.74;50.26;100394.50;10214058;28;96964;-82
2023/06/16 11:27:53;;;;;;;3.67;3.08;;;;;;;30.74;50.36;100396.38;10213552;28;96810;-81
2023/06/16 11:32:57;;;;;;;4.63;3.85;;;;;;;30.90;50.08;100394.34;10213400;28;97126;-81
2023/06/16 11:38:02;;;;;;;3.55;3.15;;;;;;;30.84;49.10;100395.06;10211343;28;97019;-81
2023/06/16 11:43:07;;;;;;;3.53;3.13;;;;;;;31.05;49.32;100400.59;10213200;28;96717;-82
2023/06/16 11:48:10;;;;;;;4.18;3.20;;;;;;;31.09;48.45;100396.47;10212895;28;97634;-81
2023/06/16 11:53:16;;;;;;;3.83;3.17;;;;;;;31.17;47.79;100393.66;10211174;28;96723;-81
2023/06/16 11:58:21;;;;;;;5.28;3.25;;;;;;;31.30;48.67;100396.56;10180965;28;96932;-82
2023/06/16 12:03:24;;;;;;;4.40;3.35;;;;;;;31.19;48.28;100398.91;10172072;28;96833;-81
2023/06/16 12:08:37;;;;;;;4.30;3.00;;;;;;;31.13;48.75;100397.78;10172200;28;98019;-82
2023/06/16 12:13:41;;;;;;;4.55;3.75;;;;;;;31.47;48.60;100399.91;10206341;28;96628;-81
2023/06/16 12:18:44;;;;;;;4.05;3.28;;;;;;;31.24;49.44;100399.19;10212133;28;98146;-82
2023/06/16 12:23:52;;;;;;;5.32;3.83;;;;;;;31.49;49.57;100378.81;10211756;28;96641;-82
2023/06/16 12:28:55;;;;;;;4.70;3.80;;;;;;;31.33;49.55;100385.31;10210118;28;97873;-81
2023/06/16 12:33:59;;;;;;;4.03;3.63;;;;;;;31.43;49.84;100389.59;10211144;28;96764;-82
2023/06/16 12:39:16;;;;;;;6.25;3.90;;;;;;;31.63;49.16;100379.81;10211662;28;96674;-82
2023/06/16 12:44:20;;;;;;;4.65;3.60;;;;;;;31.70;49.50;100384.25;10210263;28;96666;-82
2023/06/16 12:49:23;;;;;;;5.43;3.95;;;;;;;31.71;49.83;100377.81;10211048;28;98227;-82
2023/06/16 12:54:28;;;;;;;4.65;4.15;;;;;;;31.89;49.49;100372.75;10210170;28;97532;-82
2023/06/16 12:59:32;;;;;;;4.60;3.90;;;;;;;31.67;48.63;100373.78;10170567;28;97652;-82
2023/06/16 13:04:35;;;;;;;5.68;4.38;;;;;;;31.93;48.32;100363.19;10169960;28;97739;-81
2023/06/16 13:09:41;;;;;;;4.32;3.92;;;;;;;32.02;48.29;100367.47;10170647;28;96729;-81
2023/06/16 13:14:45;;;;;;;5.70;3.88;;;;;;;31.95;48.43;100361.13;10169990;28;96772;-82
2023/06/16 13:19:48;;;;;;;6.60;4.13;;;;;;;31.68;48.09;100350.97;10169773;28;96800;-81
2023/06/16 13:24:53;;;;;;;4.93;4.05;;;;;;;31.99;47.85;100353.41;10169275;28;97582;-81
2023/06/16 13:29:56;;;;;;;4.38;3.95;;;;;;;32.09;47.93;100349.31;10170156;28;96717;-82
2023/06/16 13:34:59;;;;;;;5.85;3.97;;;;;;;32.17;48.51;100343.69;10169689;28;96778;-81
2023/06/16 13:40:05;;;;;;;4.32;3.88;;;;;;;32.28;48.01;100328.72;10169566;28;96925;-82
2023/06/16 13:45:09;;;;;;;4.63;3.70;;;;;;;31.85;48.00;100336.09;10169167;28;97800;-82
2023/06/16 13:50:12;;;;;;;5.93;3.80;;;;;;;31.90;48.18;100333.63;10169301;28;96770;-81
2023/06/16 13:55:17;;;;;;;5.65;4.00;;;;;;;31.72;46.91;100333.19;10169800;28;96872;-82
2023/06/16 14:00:21;;;;;;;4.50;3.40;;;;;;;32.19;46.80;100321.72;10168920;28;96917;-82
2023/06/16 14:05:25;;;;;;;8.27;3.30;;;;;;;32.01;46.69;100318.66;10168121;28;96841;-82
2023/06/16 14:10:30;;;;;;;4.70;3.72;;;;;;;32.07;47.08;100321.41;10168454;28;97771;-82
2023/06/16 14:15:35;;;;;;;4.63;3.47;;;;;;;32.09;46.95;100324.78;10168132;28;96725;-82
2023/06/16 14:20:38;;;;;;;5.50;3.58;;;;;;;32.18;47.21;100326.34;10168402;28;96869;-81
2023/06/16 14:25:45;;;;;;;4.25;3.70;;;;;;;31.44;47.20;100317.84;10168690;28;97036;-82
2023/06/16 14:30:48;;;;;;;5.50;3.80;;;;;;;31.98;47.68;100313.59;10168210;28;97691;-82
2023/06/16 14:35:52;;;;;;;4.07;3.58;;;;;;;31.86;46.99;100316.00;10167780;28;97236;-82
2023/06/16 14:40:57;;;;;;;5.20;3.55;;;;;;;31.76;46.95;100320.06;10167887;28;98116;-82
2023/06/16 14:46:00;;;;;;;3.88;3.05;;;;;;;31.94;46.80;100312.31;10168806;28;96846;-82
2023/06/16 14:51:05;;;;;;;4.05;3.50;;;;;;;32.05;46.33;100312.59;10167800;28;97260;-82
2023/06/16 14:56:10;;;;;;;4.30;3.20;;;;;;;32.06;46.67;100316.19;10167401;28;98198;-82
2023/06/16 15:01:13;;;;;;;3.65;3.08;;;;;;;31.91;47.07;100318.16;10166895;28;97187;-82
2023/06/16 15:06:16;;;;;;;3.15;2.53;;;;;;;31.90;46.49;100324.63;10166674;28;96915;-82
2023/06/16 15:11:21;;;;;;;4.25;2.80;;;;;;;31.90;46.33;100330.06;10166729;28;96742;-82
2023/06/16 15:16:25;;;;;;;4.35;2.90;;;;;;;31.97;45.91;100330.97;10167048;28;96725;-81
2023/06/16 15:21:29;;;;;;;3.83;2.80;;;;;;;32.03;45.48;100325.56;10206575;28;97825;-82
2023/06/16 15:26:34;;;;;;;4.13;2.72;;;;;;;32.22;45.08;100329.50;10208530;28;97463;-82
2023/06/16 15:31:38;;;;;;;4.13;3.08;;;;;;;31.87;45.15;100327.72;10213886;28;96685;-82
2023/06/16 15:36:41;;;;;;;3.58;2.67;;;;;;;31.93;44.72;100326.94;10213041;28;96637;-81
2023/06/16 15:41:46;;;;;;;2.92;2.40;;;;;;;31.99;44.83;100329.75;10213492;28;96701;-82
2023/06/16 15:46:49;;;;;;;3.28;2.40;;;;;;;31.90;44.39;100327.34;10212982;28;97663;-82
2023/06/16 15:51:53;;;;;;;2.92;2.30;;;;;;;31.71;44.14;100320.66;10211304;28;96715;-82
2023/06/16 15:56:59;;;;;;;3.03;2.42;;;;;;;31.56;44.64;100321.75;10182348;28;96769;-82
2023/06/16 16:02:03;;;;;;;3.00;2.10;;;;;;;31.47;44.71;100331.06;10132612;28;98472;-81
2023/06/16 16:07:07;;;;;;;2.63;1.85;;;;;;;31.62;44.85;100326.41;10132091;28;96739;-82
2023/06/16 16:12:12;;;;;;;3.58;2.13;;;;;;;31.28;44.38;100327.94;10208095;28;97545;-82
2023/06/16 16:17:17;;;;;;;2.70;2.10;;;;;;;31.34;43.71;100331.75;10212350;28;97973;-82
2023/06/16 16:22:21;;;;;;;2.63;1.80;;;;;;;30.98;43.18;100325.41;10212516;28;96670;-82
2023/06/16 16:27:28;;;;;;;2.63;1.90;;;;;;;30.88;43.00;100333.03;10212265;28;97960;-81
2023/06/16 16:32:31;;;;;;;2.65;1.85;;;;;;;31.04;42.95;100328.22;10211635;28;96666;-81
2023/06/16 16:37:35;;;;;;;2.22;1.60;;;;;;;30.81;42.93;100327.50;10211368;28;97540;-82
2023/06/16 16:42:40;;;;;;;2.78;1.70;;;;;;;30.60;41.85;100337.38;10209660;28;97752;-82
2023/06/16 16:47:43;;;;;;;2.85;1.83;;;;;;;30.62;42.43;100343.50;10198427;28;96789;-81
2023/06/16 16:52:46;;;;;;;2.30;2.10;;;;;;;30.44;41.97;100337.59;10171041;28;96713;-81
2023/06/16 16:57:51;;;;;;;2.90;1.80;;;;;;;30.45;42.59;100331.13;10170659;28;96810;-82
2023/06/16 17:02:54;;;;;;;2.20;1.55;;;;;;;30.31;42.42;100329.22;10206266;28;96862;-82
2023/06/16 17:07:58;;;;;;;3.00;1.60;;;;;;;30.24;42.43;100326.41;10176928;28;97602;-81
2023/06/16 17:13:04;;;;;;;;;;;;;;;30.17;42.83;100310.03;10170950;28;96575;-81
2023/06/16 17:18:10;;;;;;;3.80;1.80;;;;;;;29.99;43.43;100314.91;10171608;28;97804;-82
2023/06/16 17:23:14;;;;;;;;;;;;;;;29.89;43.38;100318.88;10170736;28;97005;-82
2023/06/16 17:28:19;;;;;;;3.42;1.52;;;;;;;30.12;44.07;100322.47;10170242;28;96917;-82
2023/06/16 17:33:22;;;;;;;3.13;1.90;;;;;;;29.86;44.11;100313.84;10169320;28;96924;-82
2023/06/16 17:38:26;;;;;;;;;;;;;;;29.88;44.32;100312.59;10213802;23;97006;-81
2023/06/16 17:43:30;;;;;;;2.47;1.47;;;;;;;29.89;44.32;100316.16;10209613;28;98083;-82
2023/06/16 17:48:34;;;;;;;2.42;1.50;;;;;;;29.63;44.28;100318.41;10207596;28;96726;-82
2023/06/16 17:53:37;;;;;;;2.45;1.60;;;;;;;29.59;45.21;100317.94;10232242;28;96799;-81
2023/06/16 17:58:42;;;;;;;2.13;1.42;;;;;;;29.58;44.96;100312.69;10209027;28;96746;-82
2023/06/16 18:03:45;;;;;;;1.73;1.08;;;;;;;29.50;45.64;100319.00;10208597;28;96590;-81
2023/06/16 18:08:50;;;;;;;1.50;1.23;;;;;;;29.14;45.70;100316.00;10228554;28;97618;-82
2023/06/16 18:14:12;;;;;;;1.40;1.10;;;;;;;29.18;45.51;100336.31;10248243;28;97804;-81
2023/06/16 18:19:33;;;;;;;2.15;1.27;;;;;;;29.11;45.68;100329.91;10246641;28;96820;-82
2023/06/16 18:24:36;;;;;;;1.90;1.17;;;;;;;28.92;45.37;100329.47;10247404;28;97122;-82
2023/06/16 18:29:41;;;;;;;1.85;1.35;;;;;;;28.87;45.66;100327.28;10248969;28;96826;-82
2023/06/16 18:34:45;;;;;;;2.33;1.20;;;;;;;28.72;46.01;100333.59;10247897;28;97648;-82
2023/06/16 18:40:08;;;;;;;2.50;1.42;;;;;;;28.47;46.22;100330.13;10248542;28;96717;-82
2023/06/16 18:45:13;;;;;;;2.53;1.30;;;;;;;28.33;46.91;100330.81;10180457;28;98835;-82
2023/06/16 18:50:16;;;;;;;1.75;1.23;;;;;;;28.21;47.26;100328.59;10167800;28;97161;-82
2023/06/16 18:55:20;;;;;;;;;;;;;;;28.04;47.27;100334.06;10168288;28;96693;-82
2023/06/16 19:00:24;;;;;;;1.23;1.13;;;;;;;27.86;47.13;100337.91;10225948;28;97191;-82
2023/06/16 19:05:28;;;;;;;1.48;1.10;;;;;;;27.69;47.11;100334.38;10254694;28;96805;-81
2023/06/16 19:10:31;;;;;;;1.60;1.50;;;;;;;27.51;47.32;100343.63;10255346;28;97692;-82
2023/06/16 19:15:35;;;;;;;2.33;1.55;;;;;;;27.35;47.50;100344.44;10252824;28;96768;-82
2023/06/16 19:20:39;;;;;;;1.73;1.20;;;;;;;27.31;47.38;100347.59;10254497;28;96830;-82
2023/06/16 19:25:43;;;;;;;1.83;1.30;;;;;;;27.15;47.08;100344.88;10253797;28;96607;-82
2023/06/16 19:30:48;;;;;;;2.22;1.50;;;;;;;26.98;47.45;100346.63;10254102;28;96854;-82
2023/06/16 19:35:51;;;;;;;2.78;1.40;;;;;;;26.74;48.08;100346.53;10252678;28;96958;-81
2023/06/16 19:40:54;;;;;;;1.52;1.15;;;;;;;26.63;48.24;100353.03;10253729;28;97000;-82
2023/06/16 19:45:59;;;;;;;2.22;1.50;;;;;;;26.54;48.49;100345.91;10174040;28;97153;-82
2023/06/16 19:51:03;;;;;;;2.58;1.15;;;;;;;26.48;48.81;100353.78;10195705;28;96741;-82
2023/06/16 19:56:06;;;;;;;2.20;1.30;;;;;;;26.49;49.32;100355.50;10212945;28;97271;-81
2023/06/16 20:01:11;;;;;;;2.78;1.50;;;;;;;26.41;49.68;100350.91;10212854;28;96771;-82
2023/06/16 20:06:15;;;;;;;2.13;1.45;;;;;;;26.35;49.84;100364.16;10211830;28;97016;-82
2023/06/16 20:11:18;;;;;;;2.93;1.83;;;;;;;26.21;49.98;100368.28;10211760;28;97637;-82
2023/06/16 20:16:40;;;;;;;2.08;1.38;;;;;;;26.19;50.43;100359.47;10205914;28;96653;-82
2023/06/16 20:21:43;;;;;;;3.50;1.48;;;;;;;26.02;50.48;100365.75;10212301;28;97031;-82
2023/06/16 20:26:47;;;;;;;2.10;1.40;;;;;;;25.79;50.86;100360.00;10212345;28;96901;-81
2023/06/16 20:31:52;;;;;;;3.60;1.58;;;;;;;25.69;51.40;100371.84;10212312;28;97637;-82
2023/06/16 20:36:55;;;;;;;2.53;1.52;;;;;;;25.42;52.33;100382.63;10211106;28;97929;-82
2023/06/16 20:41:58;;;;;;;2.80;1.57;;;;;;;25.28;52.98;100383.16;10225468;28;96942;-82
2023/06/16 20:47:05;;;;;;;3.63;1.90;;;;;;;25.14;53.31;100389.06;10210995;28;96883;-82
2023/06/16 20:52:08;;;;;;;3.55;1.70;;;;;;;24.99;53.76;100401.28;10211283;28;96751;-82
2023/06/16 20:57:12;;;;;;;1.95;1.40;;;;;;;24.92;53.70;100405.56;10210504;28;98543;-82
2023/06/16 21:02:17;;;;;;;2.55;1.55;;;;;;;24.92;53.81;100406.41;10210766;28;96572;-82
2023/06/16 21:07:43;;;;;;;2.10;1.40;;;;;;;24.92;53.89;100402.88;10210006;28;96891;-82
2023/06/16 21:12:47;;;;;;;2.08;1.63;;;;;;;24.80;54.76;100412.97;10210517;28;97025;-82
2023/06/16 21:18:09;;;;;;;4.20;1.95;;;;;;;24.69;55.05;100410.47;10210210;28;96789;-82
2023/06/16 21:23:13;;;;;;;1.73;1.48;;;;;;;24.74;55.00;100408.16;10209148;28;96962;-82
2023/06/16 21:28:16;;;;;;;1.98;1.30;;;;;;;24.62;55.47;100423.66;10209754;28;97629;-82
2023/06/16 21:33:20;;;;;;;2.60;1.60;;;;;;;24.45;55.86;100420.84;10210840;28;96937;-82
2023/06/16 21:38:29;;;;;;;2.83;1.50;;;;;;;24.37;56.24;100429.66;10209136;28;97311;-82
2023/06/16 21:43:32;;;;;;;2.67;1.58;;;;;;;24.27;56.71;100422.56;10209238;28;97433;-82
2023/06/16 21:48:54;;;;;;;3.63;1.60;;;;;;;24.15;56.97;100434.47;10207835;28;97615;-81
2023/06/16 21:53:57;;;;;;;2.33;1.40;;;;;;;24.04;57.50;100431.91;10209207;28;97949;-82
2023/06/16 21:59:00;;;;;;;2.13;1.77;;;;;;;24.04;57.58;100429.22;10207569;28;96832;-82
2023/06/16 22:04:05;;;;;;;2.47;1.80;;;;;;;;;;10208611;28;96941;-81
2023/06/16 22:09:09;;;;;;;3.35;1.67;;;;;;;23.92;57.96;100431.22;10209590;28;96988;-82
2023/06/16 22:14:12;;;;;;;2.55;1.50;;;;;;;23.83;58.38;100424.00;10208840;28;97507;-81
2023/06/16 22:19:17;;;;;;;2.67;1.77;;;;;;;23.73;58.87;100422.28;10208852;28;97045;-82
2023/06/16 22:24:21;;;;;;;3.17;1.90;;;;;;;23.61;59.06;100413.50;10209562;28;96960;-82
2023/06/16 22:29:26;;;;;;;2.53;1.60;;;;;;;23.58;59.45;100414.63;10208521;28;97288;-81
2023/06/16 22:34:31;;;;;;;2.95;1.88;;;;;;;23.43;59.52;100415.97;10209391;28;96732;-81
2023/06/16 22:39:34;;;;;;;2.58;1.80;;;;;;;23.56;59.51;100419.28;10220865;28;96652;-82
2023/06/16 22:44:38;;;;;;;2.53;1.80;;;;;;;23.59;59.44;100421.72;10192134;28;96759;-82
2023/06/16 22:49:43;;;;;;;2.30;1.70;;;;;;;23.52;59.85;100412.47;10205831;28;96912;-81
2023/06/16 22:54:46;;;;;;;3.10;1.80;;;;;;;23.38;60.46;100406.63;10221236;28;96716;-82
2023/06/16 22:59:50;;;;;;;1.93;1.73;;;;;;;23.35;60.49;100398.84;10221441;28;97693;-81
2023/06/16 23:04:55;;;;;;;2.43;1.87;;;;;;;23.18;60.96;100412.94;10220493;28;97493;-82
2023/06/16 23:09:58;;;;;;;2.72;1.75;;;;;;;23.20;61.00;100406.44;10220718;28;96658;-81
2023/06/16 23:15:01;;;;;;;2.97;1.73;;;;;;;23.13;61.22;100412.50;10242215;28;97516;-82
2023/06/16 23:20:08;;;;;;;2.83;2.00;;;;;;;22.88;62.42;100411.13;10261011;28;96858;-82
2023/06/16 23:25:13;;;;;;;2.20;1.63;;;;;;;22.90;62.21;100411.88;10260953;28;96686;-82
2023/06/16 23:30:37;;;;;;;3.40;1.88;;;;;;;23.04;61.88;100406.13;10254889;28;96977;-82